createdAt,value
2018-04-02T00:01:53.201Z,-0.30
2018-04-02T00:04:20.745Z,-0.30
2018-04-02T00:06:48.291Z,-0.30
2018-04-02T00:09:16.018Z,-0.40
2018-04-02T00:11:44.324Z,-0.40
2018-04-02T00:14:11.874Z,-0.30
2018-04-02T00:16:39.586Z,-0.40
2018-04-02T00:19:07.145Z,-0.30
2018-04-02T00:21:34.690Z,-0.40
2018-04-02T00:24:02.278Z,-0.40
2018-04-02T00:26:30.018Z,-0.30
2018-04-02T00:28:57.558Z,-0.40
2018-04-02T00:31:25.239Z,-0.30
2018-04-02T00:33:52.787Z,-0.30
2018-04-02T00:36:20.341Z,-0.30
2018-04-02T00:38:48.310Z,-0.30
2018-04-02T00:41:15.851Z,-0.30
2018-04-02T00:43:43.410Z,-0.30
2018-04-02T00:46:11.379Z,-0.30
2018-04-02T00:48:38.920Z,-0.30
2018-04-02T00:51:07.225Z,-0.30
2018-04-02T00:53:34.906Z,-0.30
2018-04-02T00:56:02.447Z,-0.40
2018-04-02T00:58:29.998Z,-0.40
2018-04-02T01:00:57.968Z,-0.40
2018-04-02T01:03:25.522Z,-0.40
2018-04-02T01:05:53.068Z,-0.30
2018-04-02T01:08:20.743Z,-0.40
2018-04-02T01:10:48.281Z,-0.40
2018-04-02T01:13:16.594Z,-0.40
2018-04-02T01:15:44.169Z,-0.50
2018-04-02T01:18:11.714Z,-0.50
2018-04-02T01:20:39.258Z,-0.40
2018-04-02T01:23:06.990Z,-0.40
2018-04-02T01:25:35.306Z,-0.40
2018-04-02T01:28:02.855Z,-0.40
2018-04-02T01:30:30.449Z,-0.40
2018-04-02T01:32:57.998Z,-0.40
2018-04-02T01:35:25.547Z,-0.40
2018-04-02T01:37:53.253Z,-0.50
2018-04-02T01:40:20.885Z,-0.50
2018-04-02T01:42:48.428Z,-0.50
2018-04-02T01:45:16.316Z,-0.50
2018-04-02T01:47:43.866Z,-0.50
2018-04-02T01:50:11.417Z,-0.50
2018-04-02T01:52:39.134Z,-0.50
2018-04-02T01:55:07.438Z,-0.60
2018-04-02T01:57:35.002Z,-0.60
2018-04-02T02:00:02.689Z,-0.60
2018-04-02T02:02:30.293Z,-0.60
2018-04-02T02:04:58.610Z,-0.60
2018-04-02T02:07:26.324Z,-0.60
2018-04-02T02:09:53.877Z,-0.60
2018-04-02T02:12:21.466Z,-0.60
2018-04-02T02:14:49.024Z,-0.60
2018-04-02T02:17:17.342Z,-0.70
2018-04-02T02:19:45.082Z,-0.70
2018-04-02T02:22:12.627Z,-0.60
2018-04-02T02:24:40.994Z,-0.60
2018-04-02T02:27:09.317Z,-0.60
2018-04-02T02:29:36.870Z,-0.70
2018-04-02T02:32:04.469Z,-0.70
2018-04-02T02:34:32.009Z,-0.70
2018-04-02T02:36:59.552Z,-0.70
2018-04-02T02:39:27.545Z,-0.70
2018-04-02T02:41:55.087Z,-0.70
2018-04-02T02:44:22.638Z,-0.80
2018-04-02T02:46:50.237Z,-0.70
2018-04-02T02:49:17.787Z,-0.70
2018-04-02T02:51:45.338Z,-0.70
2018-04-02T02:54:13.230Z,-0.70
2018-04-02T02:56:40.775Z,-0.70
2018-04-02T02:59:08.331Z,-0.70
2018-04-02T03:01:36.201Z,-0.80
2018-04-02T03:04:04.523Z,-0.80
2018-04-02T03:06:32.076Z,-0.80
2018-04-02T03:09:00.510Z,-0.80
2018-04-02T03:11:28.058Z,-0.80
2018-04-02T03:13:55.605Z,-0.80
2018-04-02T03:16:23.149Z,-0.80
2018-04-02T03:18:50.697Z,-0.80
2018-04-02T03:21:18.252Z,-0.80
2018-04-02T03:23:46.725Z,-0.80
2018-04-02T03:26:15.032Z,-0.80
2018-04-02T03:28:42.573Z,-0.80
2018-04-02T03:31:10.388Z,-0.80
2018-04-02T03:33:38.113Z,-0.80
2018-04-02T03:36:05.725Z,-0.80
2018-04-02T03:38:33.277Z,-0.70
2018-04-02T03:41:00.882Z,-0.80
2018-04-02T03:43:28.552Z,-0.80
2018-04-02T03:45:56.097Z,-0.80
2018-04-02T03:48:24.405Z,-0.80
2018-04-02T03:50:52.282Z,-0.80
2018-04-02T03:53:19.847Z,-0.80
2018-04-02T03:55:47.383Z,-0.80
2018-04-02T03:58:15.066Z,-0.80
2018-04-02T04:00:42.610Z,-0.90
2018-04-02T04:03:10.158Z,-0.90
2018-04-02T04:05:37.789Z,-0.90
2018-04-02T04:08:06.108Z,-0.90
2018-04-02T04:10:33.650Z,-0.90
2018-04-02T04:13:01.253Z,-0.80
2018-04-02T04:15:28.814Z,-0.90
2018-04-02T04:17:56.353Z,-0.90
2018-04-02T04:20:24.043Z,-0.90
2018-04-02T04:22:51.607Z,-0.90
2018-04-02T04:25:19.153Z,-0.90
2018-04-02T04:27:46.990Z,-0.90
2018-04-02T04:30:14.530Z,-0.90
2018-04-02T04:32:42.080Z,-0.90
2018-04-02T04:35:10.774Z,-0.90
2018-04-02T04:37:38.328Z,-0.90
2018-04-02T04:40:05.921Z,-0.90
2018-04-02T04:42:33.488Z,-0.90
2018-04-02T04:45:01.038Z,-0.90
2018-04-02T04:47:28.586Z,-0.90
2018-04-02T04:49:56.257Z,-0.90
2018-04-02T04:52:23.974Z,-0.90
2018-04-02T04:54:52.282Z,-0.90
2018-04-02T04:57:19.841Z,-0.90
2018-04-02T04:59:47.713Z,-0.90
2018-04-02T05:02:15.267Z,-0.80
2018-04-02T05:04:42.846Z,-0.80
2018-04-02T05:07:10.605Z,-0.80
2018-04-02T05:09:38.160Z,-0.80
2018-04-02T05:12:05.706Z,-0.70
2018-04-02T05:14:33.283Z,-0.70
2018-04-02T05:17:00.890Z,-0.70
2018-04-02T05:19:29.225Z,-0.70
2018-04-02T05:21:57.001Z,-0.70
2018-04-02T05:24:24.569Z,-0.60
2018-04-02T05:26:52.180Z,-0.60
2018-04-02T05:29:21.046Z,-0.60
2018-04-02T05:31:48.658Z,-0.60
2018-04-02T05:34:16.286Z,-0.60
2018-04-02T05:36:44.017Z,-0.50
2018-04-02T05:39:11.559Z,-0.50
2018-04-02T05:41:39.309Z,-0.50
2018-04-02T05:44:07.001Z,-0.40
2018-04-02T05:46:34.687Z,-0.40
2018-04-02T05:49:03.092Z,-0.30
2018-04-02T05:51:31.068Z,-0.30
2018-04-02T05:53:58.616Z,-0.30
2018-04-02T05:56:26.161Z,-0.20
2018-04-02T05:58:54.526Z,-0.10
2018-04-02T06:01:22.065Z,-0.20
2018-04-02T06:03:49.616Z,-0.10
2018-04-02T06:06:17.593Z,-0.10
2018-04-02T06:08:45.145Z,-0.10
2018-04-02T06:11:12.694Z,-0.10
2018-04-02T06:13:40.369Z,-0.20
2018-04-02T06:16:07.925Z,-0.10
2018-04-02T06:18:35.504Z,0.00
2018-04-02T06:21:03.358Z,0.10
2018-04-02T06:23:30.917Z,0.10
2018-04-02T06:25:58.473Z,0.20
2018-04-02T06:28:26.191Z,0.20
2018-04-02T06:30:53.748Z,0.30
2018-04-02T06:33:21.297Z,0.30
2018-04-02T06:35:49.944Z,0.20
2018-04-02T06:38:17.492Z,0.20
2018-04-02T06:40:45.037Z,0.30
2018-04-02T06:43:12.630Z,0.40
2018-04-02T06:45:40.964Z,0.60
2018-04-02T06:48:08.507Z,0.60
2018-04-02T06:50:36.325Z,0.60
2018-04-02T06:53:04.198Z,0.70
2018-04-02T06:55:31.739Z,0.90
2018-04-02T06:57:59.288Z,0.90
2018-04-02T07:00:26.906Z,0.90
2018-04-02T07:02:55.225Z,1.00
2018-04-02T07:05:22.776Z,0.90
2018-04-02T07:07:50.384Z,1.10
2018-04-02T07:10:18.002Z,1.10
2018-04-02T07:12:45.553Z,1.10
2018-04-02T07:15:13.285Z,1.10
2018-04-02T07:17:40.825Z,1.20
2018-04-02T07:20:08.380Z,1.00
2018-04-02T07:22:35.956Z,1.10
2018-04-02T07:25:04.281Z,1.30
2018-04-02T07:27:31.841Z,1.30
2018-04-02T07:29:59.763Z,1.40
2018-04-02T07:32:28.112Z,1.60
2018-04-02T07:34:55.661Z,1.60
2018-04-02T07:37:23.337Z,1.70
2018-04-02T07:39:50.919Z,1.60
2018-04-02T07:42:18.482Z,1.60
2018-04-02T07:44:46.937Z,1.60
2018-04-02T07:47:14.491Z,1.60
2018-04-02T07:49:42.041Z,1.80
2018-04-02T07:52:09.926Z,1.80
2018-04-02T07:54:37.482Z,1.80
2018-04-02T07:57:05.041Z,1.80
2018-04-02T07:59:32.928Z,2.00
2018-04-02T08:02:00.470Z,2.00
2018-04-02T08:04:28.013Z,1.80
2018-04-02T08:06:55.609Z,1.80
2018-04-02T08:09:23.229Z,1.90
2018-04-02T08:11:50.796Z,2.00
2018-04-02T08:14:18.550Z,2.20
2018-04-02T08:16:46.089Z,2.20
2018-04-02T08:19:13.715Z,2.20
2018-04-02T08:21:41.452Z,2.30
2018-04-02T08:24:08.996Z,2.20
2018-04-02T08:26:36.534Z,2.20
2018-04-02T08:29:04.102Z,2.30
2018-04-02T08:31:31.651Z,2.40
2018-04-02T08:33:59.191Z,2.50
2018-04-02T08:36:27.575Z,2.60
2018-04-02T08:38:55.175Z,2.60
2018-04-02T08:41:22.694Z,2.60
2018-04-02T08:43:50.414Z,2.90
2018-04-02T08:46:17.953Z,3.00
2018-04-02T08:48:45.491Z,3.10
2018-04-02T08:51:13.058Z,3.10
2018-04-02T08:53:41.058Z,3.30
2018-04-02T08:56:08.596Z,3.50
2018-04-02T08:58:36.163Z,3.20
2018-04-02T09:01:03.753Z,3.30
2018-04-02T09:03:31.298Z,3.50
2018-04-02T09:05:58.841Z,3.60
2018-04-02T09:08:26.831Z,3.70
2018-04-02T09:10:54.369Z,3.70
2018-04-02T09:13:22.762Z,3.50
2018-04-02T09:15:50.302Z,3.50
2018-04-02T09:18:17.881Z,3.50
2018-04-02T09:20:45.726Z,3.50
2018-04-02T09:23:13.269Z,3.70
2018-04-02T09:25:40.825Z,3.80
2018-04-02T09:28:08.486Z,3.90
2018-04-02T09:30:36.041Z,3.90
2018-04-02T09:33:03.594Z,4.10
2018-04-02T09:35:31.517Z,4.30
2018-04-02T09:37:59.062Z,4.50
2018-04-02T09:40:26.622Z,4.40
2018-04-02T09:42:54.191Z,4.60
2018-04-02T09:45:21.762Z,4.80
2018-04-02T09:47:49.314Z,4.50
2018-04-02T09:50:17.089Z,4.40
2018-04-02T09:52:44.638Z,4.50
2018-04-02T09:55:12.214Z,4.50
2018-04-02T09:57:39.813Z,4.80
2018-04-02T10:00:07.386Z,5.20
2018-04-02T10:02:36.870Z,5.60
2018-04-02T10:05:06.045Z,5.30
2018-04-02T10:07:35.391Z,4.90
2018-04-02T10:10:03.803Z,4.80
2018-04-02T10:12:31.625Z,4.80
2018-04-02T10:14:59.229Z,4.50
2018-04-02T10:17:26.792Z,4.80
2018-04-02T10:19:54.546Z,5.10
2018-04-02T10:22:22.087Z,5.20
2018-04-02T10:24:49.646Z,5.20
2018-04-02T10:27:17.332Z,5.50
2018-04-02T10:29:44.956Z,5.70
2018-04-02T10:32:12.460Z,5.10
2018-04-02T10:34:40.288Z,5.00
2018-04-02T10:37:07.824Z,5.10
2018-04-02T10:39:35.376Z,5.30
2018-04-02T10:42:03.081Z,5.70
2018-04-02T10:44:30.619Z,5.80
2018-04-02T10:46:58.163Z,5.80
2018-04-02T10:49:25.877Z,5.90
2018-04-02T10:51:53.425Z,6.00
2018-04-02T10:54:20.969Z,6.40
2018-04-02T10:56:48.872Z,6.30
2018-04-02T10:59:17.188Z,7.00
2018-04-02T11:01:44.740Z,7.00
2018-04-02T11:04:12.672Z,7.30
2018-04-02T11:06:40.223Z,7.30
2018-04-02T11:09:07.773Z,6.90
2018-04-02T11:11:35.658Z,6.50
2018-04-02T11:14:03.207Z,6.90
2018-04-02T11:16:30.749Z,6.50
2018-04-02T11:18:58.639Z,6.80
2018-04-02T11:21:26.190Z,7.10
2018-04-02T11:23:53.802Z,6.90
2018-04-02T11:26:22.226Z,6.90
2018-04-02T11:28:49.936Z,6.90
2018-04-02T11:31:18.714Z,6.50
2018-04-02T11:33:46.709Z,6.50
2018-04-02T11:36:14.318Z,6.90
2018-04-02T11:38:41.968Z,6.90
2018-04-02T11:41:09.961Z,6.60
2018-04-02T11:43:37.554Z,6.70
2018-04-02T11:46:05.901Z,6.50
2018-04-02T11:48:33.561Z,6.50
2018-04-02T11:51:01.610Z,7.00
2018-04-02T11:53:29.159Z,7.00
2018-04-02T11:55:56.849Z,7.20
2018-04-02T11:58:24.391Z,7.00
2018-04-02T12:00:51.943Z,7.80
2018-04-02T12:03:19.841Z,8.30
2018-04-02T12:05:47.382Z,8.20
2018-04-02T12:08:14.922Z,8.00
2018-04-02T12:10:42.516Z,7.80
2018-04-02T12:13:10.273Z,7.50
2018-04-02T12:15:37.818Z,8.00
2018-04-02T12:18:05.615Z,8.20
2018-04-02T12:20:33.241Z,8.10
2018-04-02T12:23:00.794Z,9.10
2018-04-02T12:25:28.338Z,9.50
2018-04-02T12:27:56.250Z,11.20
2018-04-02T12:30:23.816Z,12.30
2018-04-02T12:32:51.366Z,11.20
2018-04-02T12:35:18.966Z,12.90
2018-04-02T12:37:46.521Z,12.70
2018-04-02T12:40:14.839Z,12.60
2018-04-02T12:42:42.433Z,12.50
2018-04-02T12:45:10.295Z,13.40
2018-04-02T12:47:38.634Z,13.90
2018-04-02T12:50:06.192Z,13.90
2018-04-02T12:52:33.895Z,13.90
2018-04-02T12:55:01.444Z,13.40
2018-04-02T12:57:29.061Z,14.30
2018-04-02T12:59:56.886Z,15.50
2018-04-02T13:02:24.430Z,14.80
2018-04-02T13:04:52.029Z,14.70
2018-04-02T13:07:20.347Z,15.80
2018-04-02T13:09:47.906Z,15.70
2018-04-02T13:12:15.505Z,15.20
2018-04-02T13:14:44.874Z,15.30
2018-04-02T13:17:12.418Z,15.30
2018-04-02T13:19:39.964Z,13.70
2018-04-02T13:22:07.571Z,14.80
2018-04-02T13:24:35.121Z,15.50
2018-04-02T13:27:02.664Z,15.10
2018-04-02T13:29:30.250Z,15.90
2018-04-02T13:31:58.031Z,15.20
2018-04-02T13:34:25.575Z,16.40
2018-04-02T13:36:53.145Z,16.00
2018-04-02T13:39:22.210Z,16.10
2018-04-02T13:41:49.757Z,16.10
2018-04-02T13:44:17.356Z,17.40
2018-04-02T13:46:44.911Z,16.60
2018-04-02T13:49:12.463Z,17.10
2018-04-02T13:51:40.061Z,15.70
2018-04-02T13:54:08.380Z,16.80
2018-04-02T13:56:35.949Z,16.80
2018-04-02T13:59:03.634Z,17.40
2018-04-02T14:01:31.188Z,17.70
2018-04-02T14:03:58.736Z,18.20
2018-04-02T14:06:26.296Z,18.00
2018-04-02T14:08:53.845Z,19.30
2018-04-02T14:11:21.434Z,18.40
2018-04-02T14:13:49.042Z,20.40
2018-04-02T14:16:16.605Z,18.30
2018-04-02T14:18:44.162Z,19.10
2018-04-02T14:21:11.755Z,18.20
2018-04-02T14:23:40.070Z,19.30
2018-04-02T14:26:08.388Z,20.00
2018-04-02T14:28:35.959Z,19.90
2018-04-02T14:31:03.580Z,21.00
2018-04-02T14:33:31.143Z,20.60
2018-04-02T14:35:59.471Z,20.30
2018-04-02T14:38:27.242Z,20.30
2018-04-02T14:40:54.803Z,19.50
2018-04-02T14:43:22.361Z,20.50
2018-04-02T14:45:50.035Z,20.40
2018-04-02T14:48:17.585Z,19.90
2018-04-02T14:50:45.139Z,18.20
2018-04-02T14:53:13.046Z,19.20
2018-04-02T14:55:41.368Z,19.30
2018-04-02T14:58:08.921Z,19.30
2018-04-02T15:00:36.526Z,19.20
2018-04-02T15:03:04.409Z,19.30
2018-04-02T15:05:31.953Z,18.00
2018-04-02T15:08:00.321Z,18.60
2018-04-02T15:10:27.865Z,18.60
2018-04-02T15:12:55.413Z,17.80
2018-04-02T15:15:23.337Z,18.20
2018-04-02T15:17:50.912Z,18.20
2018-04-02T15:20:18.464Z,15.40
2018-04-02T15:22:46.184Z,14.20
2018-04-02T15:25:13.729Z,13.40
2018-04-02T15:27:41.362Z,13.60
2018-04-02T15:30:09.103Z,13.90
2018-04-02T15:32:37.420Z,12.30
2018-04-02T15:35:06.705Z,11.50
2018-04-02T15:37:34.616Z,11.50
2018-04-02T15:40:02.202Z,11.30
2018-04-02T15:42:29.749Z,11.40
2018-04-02T15:44:57.359Z,9.90
2018-04-02T15:47:24.906Z,10.30
2018-04-02T15:49:52.450Z,10.00
2018-04-02T15:52:20.182Z,10.30
2018-04-02T15:54:47.720Z,9.30
2018-04-02T15:57:15.275Z,9.00
2018-04-02T15:59:43.173Z,8.80
2018-04-02T16:02:10.716Z,8.00
2018-04-02T16:04:38.255Z,7.50
2018-04-02T16:07:05.969Z,7.40
2018-04-02T16:09:33.509Z,6.90
2018-04-02T16:12:01.059Z,6.80
2018-04-02T16:14:29.124Z,6.10
2018-04-02T16:16:56.672Z,6.00
2018-04-02T16:19:24.217Z,5.80
2018-04-02T16:21:51.809Z,6.00
2018-04-02T16:24:20.353Z,5.70
2018-04-02T16:26:47.890Z,5.90
2018-04-02T16:29:16.336Z,5.50
2018-04-02T16:31:43.889Z,5.40
2018-04-02T16:34:11.670Z,5.30
2018-04-02T16:36:39.983Z,5.40
2018-04-02T16:39:08.289Z,5.10
2018-04-02T16:41:35.876Z,5.10
2018-04-02T16:44:03.414Z,5.30
2018-04-02T16:46:30.954Z,5.30
2018-04-02T16:48:58.862Z,5.00
2018-04-02T16:51:26.562Z,4.90
2018-04-02T16:53:54.888Z,4.60
2018-04-02T16:56:22.479Z,4.60
2018-04-02T16:58:50.803Z,4.30
2018-04-02T17:01:18.350Z,4.30
2018-04-02T17:03:45.941Z,4.00
2018-04-02T17:06:13.507Z,4.00
2018-04-02T17:08:41.269Z,4.00
2018-04-02T17:11:09.057Z,3.80
2018-04-02T17:13:36.606Z,3.70
2018-04-02T17:16:04.148Z,3.50
2018-04-02T17:18:32.240Z,3.30
2018-04-02T17:20:59.781Z,3.20
2018-04-02T17:23:27.570Z,3.20
2018-04-02T17:25:55.111Z,3.10
2018-04-02T17:28:22.660Z,2.90
2018-04-02T17:30:50.556Z,2.90
2018-04-02T17:33:18.109Z,2.70
2018-04-02T17:35:45.658Z,2.50
2018-04-02T17:38:13.513Z,2.40
2018-04-02T17:40:41.053Z,2.40
2018-04-02T17:43:08.594Z,2.30
2018-04-02T17:45:36.517Z,2.10
2018-04-02T17:48:04.056Z,2.00
2018-04-02T17:50:31.649Z,2.00
2018-04-02T17:52:59.517Z,1.90
2018-04-02T17:55:27.857Z,1.70
2018-04-02T17:57:55.396Z,1.70
2018-04-02T18:00:23.113Z,1.80
2018-04-02T18:02:50.665Z,1.60
2018-04-02T18:05:18.223Z,1.40
2018-04-02T18:07:46.194Z,1.50
2018-04-02T18:10:14.481Z,1.40
2018-04-02T18:12:42.037Z,1.50
2018-04-02T18:15:09.904Z,1.50
2018-04-02T18:17:37.771Z,1.50
2018-04-02T18:20:05.305Z,1.30
2018-04-02T18:22:32.864Z,1.30
2018-04-02T18:25:00.593Z,1.30
2018-04-02T18:27:28.902Z,1.10
2018-04-02T18:29:56.442Z,1.10
2018-04-02T18:32:24.232Z,1.00
2018-04-02T18:34:51.796Z,1.00
2018-04-02T18:37:19.340Z,1.00
2018-04-02T18:39:47.336Z,0.80
2018-04-02T18:42:15.757Z,0.80
2018-04-02T18:44:43.456Z,0.70
2018-04-02T18:47:11.154Z,0.70
2018-04-02T18:49:38.748Z,0.60
2018-04-02T18:52:06.293Z,0.70
2018-04-02T18:54:34.637Z,0.80
2018-04-02T18:57:02.609Z,0.70
2018-04-02T18:59:30.160Z,0.70
2018-04-02T19:01:57.704Z,0.50
2018-04-02T19:04:25.534Z,0.60
2018-04-02T19:06:53.135Z,0.60
2018-04-02T19:09:20.802Z,0.50
2018-04-02T19:11:48.337Z,0.60
2018-04-02T19:14:15.940Z,0.60
2018-04-02T19:16:43.508Z,0.70
2018-04-02T19:19:11.057Z,0.50
2018-04-02T19:21:38.823Z,0.40
2018-04-02T19:24:06.375Z,0.20
2018-04-02T19:26:33.913Z,0.20
2018-04-02T19:29:02.010Z,0.20
2018-04-02T19:31:29.553Z,0.10
2018-04-02T19:33:57.330Z,0.00
2018-04-02T19:36:24.865Z,0.00
2018-04-02T19:38:52.408Z,0.00
2018-04-02T19:41:20.118Z,0.00
2018-04-02T19:43:47.983Z,-0.10
2018-04-02T19:46:15.533Z,-0.20
2018-04-02T19:48:43.080Z,-0.20
2018-04-02T19:51:11.070Z,-0.30
2018-04-02T19:53:38.625Z,-0.20
2018-04-02T19:56:06.173Z,-0.20
2018-04-02T19:58:33.773Z,-0.30
2018-04-02T20:01:01.321Z,-0.40
2018-04-02T20:03:30.365Z,-0.60
2018-04-02T20:05:58.177Z,-0.70
2018-04-02T20:08:25.729Z,-0.70
2018-04-02T20:10:53.329Z,-0.70
2018-04-02T20:13:21.969Z,-0.80
2018-04-02T20:15:49.514Z,-0.90
2018-04-02T20:18:17.374Z,-0.90
2018-04-02T20:20:44.909Z,-1.00
2018-04-02T20:23:12.598Z,-1.00
2018-04-02T20:25:40.207Z,-1.10
2018-04-02T20:28:07.756Z,-1.20
2018-04-02T20:30:35.303Z,-1.20
2018-04-02T20:33:03.057Z,-1.40
2018-04-02T20:35:30.610Z,-1.60
2018-04-02T20:37:58.169Z,-1.60
2018-04-02T20:40:25.737Z,-1.50
2018-04-02T20:42:53.501Z,-1.50
2018-04-02T20:45:21.071Z,-1.60
2018-04-02T20:47:48.613Z,-1.60
2018-04-02T20:50:16.297Z,-1.60
2018-04-02T20:52:43.850Z,-1.70
2018-04-02T20:55:11.409Z,-1.60
2018-04-02T20:57:39.397Z,-1.70
2018-04-02T21:00:06.942Z,-1.90
2018-04-02T21:02:34.486Z,-2.00
2018-04-02T21:05:02.092Z,-2.20
2018-04-02T21:07:30.409Z,-2.00
2018-04-02T21:09:57.954Z,-2.00
2018-04-02T21:12:25.556Z,-2.00
2018-04-02T21:14:53.130Z,-2.00
2018-04-02T21:17:20.776Z,-2.10
2018-04-02T21:19:49.108Z,-2.10
2018-04-02T21:22:16.714Z,-2.20
2018-04-02T21:24:44.258Z,-2.10
2018-04-02T21:27:11.802Z,-2.10
2018-04-02T21:29:39.542Z,-2.20
2018-04-02T21:32:07.086Z,-2.30
2018-04-02T21:34:35.242Z,-2.30
2018-04-02T21:37:02.798Z,-2.50
2018-04-02T21:39:30.343Z,-2.50
2018-04-02T21:41:58.783Z,-2.50
2018-04-02T21:44:26.389Z,-2.50
2018-04-02T21:46:53.935Z,-2.50
2018-04-02T21:49:21.479Z,-2.50
2018-04-02T21:51:49.273Z,-2.40
2018-04-02T21:54:16.834Z,-2.40
2018-04-02T21:56:45.891Z,-2.70
2018-04-02T21:59:13.489Z,-2.70
2018-04-02T22:01:41.041Z,-2.80
2018-04-02T22:04:08.595Z,-2.90
2018-04-02T22:06:48.145Z,-2.90
2018-04-02T22:09:15.730Z,-3.00
2018-04-02T22:11:44.036Z,-3.10
2018-04-02T22:14:12.365Z,-3.10
2018-04-02T22:16:39.917Z,-3.10
2018-04-02T22:19:07.471Z,-2.90
2018-04-02T22:21:35.210Z,-2.90
2018-04-02T22:24:02.760Z,-2.90
2018-04-02T22:26:31.121Z,-2.90
2018-04-02T22:28:59.761Z,-3.00
2018-04-02T22:31:27.306Z,-3.10
2018-04-02T22:33:54.852Z,-3.00
2018-04-02T22:36:22.554Z,-3.00
2018-04-02T22:38:50.101Z,-3.10
2018-04-02T22:41:17.657Z,-3.20
2018-04-02T22:43:45.251Z,-3.20
2018-04-02T22:46:12.821Z,-3.20
2018-04-02T22:48:41.129Z,-3.10
2018-04-02T22:51:08.731Z,-3.10
2018-04-02T22:53:36.273Z,-3.20
2018-04-02T22:56:03.823Z,-3.20
2018-04-02T22:58:31.416Z,-3.30
2018-04-02T23:00:58.983Z,-3.30
2018-04-02T23:03:26.592Z,-3.40
2018-04-02T23:05:54.173Z,-3.40
2018-04-02T23:08:21.725Z,-3.50
2018-04-02T23:10:49.271Z,-3.50
2018-04-02T23:13:17.269Z,-3.50
2018-04-02T23:15:44.814Z,-3.50
2018-04-02T23:18:12.363Z,-3.50
2018-04-02T23:20:40.266Z,-3.60
2018-04-02T23:23:07.814Z,-3.60
2018-04-02T23:25:35.433Z,-3.60
2018-04-02T23:28:03.171Z,-3.70
2018-04-02T23:30:31.480Z,-3.80
2018-04-02T23:32:59.026Z,-3.90
2018-04-02T23:35:26.575Z,-3.90
2018-04-02T23:37:54.887Z,-3.70
2018-04-02T23:40:22.442Z,-3.70
2018-04-02T23:42:50.135Z,-3.80
2018-04-02T23:45:17.696Z,-3.70
2018-04-02T23:47:45.241Z,-3.60
2018-04-02T23:50:12.837Z,-3.60
2018-04-02T23:52:41.157Z,-3.70
2018-04-02T23:55:08.726Z,-3.70
2018-04-02T23:57:36.322Z,-3.80
